createdAt,value
2018-12-13T00:01:22.771Z,102499.83
2018-12-13T00:03:51.092Z,102500.22
2018-12-13T00:06:19.406Z,102498.67
2018-12-13T00:08:47.742Z,102490.78
2018-12-13T00:11:16.050Z,102491.32
2018-12-13T00:13:44.511Z,102488.36
2018-12-13T00:16:12.833Z,102489.03
2018-12-13T00:18:41.262Z,102483.67
2018-12-13T00:21:09.813Z,102484.92
2018-12-13T00:23:38.261Z,102483.48
2018-12-13T00:26:06.661Z,102485.33
2018-12-13T00:28:35.027Z,102481.16
2018-12-13T00:31:03.317Z,102474.16
2018-12-13T00:33:31.629Z,102473.86
2018-12-13T00:36:00.009Z,102469.99
2018-12-13T00:38:28.338Z,102477.72
2018-12-13T00:40:56.766Z,102467.41
2018-12-13T00:43:25.426Z,102466.55
2018-12-13T00:45:53.837Z,102476.64
2018-12-13T00:48:22.152Z,102478.27
2018-12-13T00:50:50.559Z,102485.77
2018-12-13T00:53:19.259Z,102483.66
2018-12-13T00:55:47.585Z,102487.17
2018-12-13T00:58:15.943Z,102487.86
2018-12-13T01:00:44.245Z,102489.77
2018-12-13T01:03:12.705Z,102492.15
2018-12-13T01:05:41.238Z,102490.48
2018-12-13T01:08:09.625Z,102490.53
2018-12-13T01:10:38.037Z,102481.72
2018-12-13T01:13:06.392Z,102483.25
2018-12-13T01:15:34.737Z,102483.03
2018-12-13T01:18:03.138Z,102481.37
2018-12-13T01:20:31.459Z,102482.66
2018-12-13T01:22:59.867Z,102471.81
2018-12-13T01:25:28.254Z,102485.45
2018-12-13T01:27:56.796Z,102474.23
2018-12-13T01:30:25.209Z,102479.57
2018-12-13T01:32:53.496Z,102478.80
2018-12-13T01:35:21.828Z,102478.24
2018-12-13T01:37:50.153Z,102474.27
2018-12-13T01:40:18.459Z,102475.59
2018-12-13T01:42:46.774Z,102466.95
2018-12-13T01:45:15.058Z,102462.92
2018-12-13T01:47:43.383Z,102461.29
2018-12-13T01:50:11.821Z,102461.45
2018-12-13T01:52:40.114Z,102470.70
2018-12-13T01:55:08.401Z,102465.28
2018-12-13T01:57:36.744Z,102464.63
2018-12-13T02:00:05.965Z,102472.83
2018-12-13T02:02:34.280Z,102461.07
2018-12-13T02:05:02.621Z,102460.61
2018-12-13T02:07:30.949Z,102463.87
2018-12-13T02:09:59.263Z,102463.00
2018-12-13T02:12:27.705Z,102464.19
2018-12-13T02:14:56.003Z,102463.55
2018-12-13T02:17:24.306Z,102472.87
2018-12-13T02:19:52.669Z,102462.84
2018-12-13T02:22:20.982Z,102462.41
2018-12-13T02:24:49.291Z,102465.88
2018-12-13T02:27:17.619Z,102455.92
2018-12-13T02:29:45.917Z,102456.22
2018-12-13T02:32:14.209Z,102454.42
2018-12-13T02:34:42.816Z,102449.22
2018-12-13T02:37:15.712Z,102455.03
2018-12-13T02:39:44.046Z,102456.00
2018-12-13T02:42:12.493Z,102458.84
2018-12-13T02:44:42.728Z,102455.09
2018-12-13T02:47:11.077Z,102453.67
2018-12-13T02:49:39.542Z,102452.73
2018-12-13T02:52:07.885Z,102457.16
2018-12-13T02:54:36.385Z,102450.05
2018-12-13T02:57:04.797Z,102452.08
2018-12-13T02:59:33.182Z,102452.36
2018-12-13T03:02:01.508Z,102446.02
2018-12-13T03:04:29.887Z,102443.61
2018-12-13T03:06:58.181Z,102443.33
2018-12-13T03:09:26.595Z,102440.24
2018-12-13T03:11:54.952Z,102444.48
2018-12-13T03:14:23.293Z,102444.19
2018-12-13T03:16:51.884Z,102435.26
2018-12-13T03:19:20.235Z,102437.56
2018-12-13T03:21:48.598Z,102433.72
2018-12-13T03:24:17.049Z,102429.20
2018-12-13T03:26:45.364Z,102426.22
2018-12-13T03:29:13.687Z,102428.30
2018-12-13T03:31:42.031Z,102428.08
2018-12-13T03:34:10.408Z,102425.41
2018-12-13T03:36:38.778Z,102421.66
2018-12-13T03:39:08.000Z,102424.45
2018-12-13T03:41:36.529Z,102426.09
2018-12-13T03:44:04.864Z,102425.81
2018-12-13T03:46:33.187Z,102423.59
2018-12-13T03:49:01.550Z,102420.47
2018-12-13T03:51:29.872Z,102422.25
2018-12-13T03:53:58.246Z,102413.80
2018-12-13T03:56:26.594Z,102423.37
2018-12-13T03:58:54.939Z,102422.00
2018-12-13T04:01:23.497Z,102421.04
2018-12-13T04:03:51.860Z,102424.89
2018-12-13T04:06:20.155Z,102421.27
2018-12-13T04:08:48.536Z,102417.88
2018-12-13T04:11:16.869Z,102416.52
2018-12-13T04:13:45.221Z,102414.78
2018-12-13T04:16:13.774Z,102420.47
2018-12-13T04:18:42.103Z,102427.94
2018-12-13T04:21:10.416Z,102414.35
2018-12-13T04:23:38.973Z,102409.94
2018-12-13T04:26:07.286Z,102418.56
2018-12-13T04:28:35.640Z,102414.33
2018-12-13T04:31:03.998Z,102410.20
2018-12-13T04:33:32.281Z,102406.35
2018-12-13T04:36:00.576Z,102399.98
2018-12-13T04:38:28.911Z,102401.36
2018-12-13T04:40:57.244Z,102400.37
2018-12-13T04:43:25.556Z,102395.38
2018-12-13T04:45:54.206Z,102401.69
2018-12-13T04:48:22.518Z,102397.09
2018-12-13T04:50:50.806Z,102400.30
2018-12-13T04:53:19.175Z,102398.20
2018-12-13T04:55:47.472Z,102395.58
2018-12-13T04:58:15.888Z,102391.72
2018-12-13T05:00:44.250Z,102387.89
2018-12-13T05:03:12.550Z,102393.17
2018-12-13T05:05:40.852Z,102388.00
2018-12-13T05:08:09.334Z,102386.37
2018-12-13T05:10:51.016Z,102373.43
2018-12-13T05:13:19.620Z,102369.09
2018-12-13T05:15:47.971Z,102370.56
2018-12-13T05:18:16.310Z,102365.12
2018-12-13T05:20:44.651Z,102356.78
2018-12-13T05:23:13.060Z,102359.47
2018-12-13T05:25:41.338Z,102363.69
2018-12-13T05:28:10.028Z,102367.77
2018-12-13T05:30:38.368Z,102369.70
2018-12-13T05:33:06.713Z,102361.95
2018-12-13T05:35:35.054Z,102359.09
2018-12-13T05:38:03.363Z,102358.27
2018-12-13T05:40:31.638Z,102354.67
2018-12-13T05:42:59.973Z,102362.81
2018-12-13T05:45:28.264Z,102360.39
2018-12-13T05:47:56.565Z,102362.69
2018-12-13T05:50:25.105Z,102359.23
2018-12-13T05:52:53.416Z,102356.77
2018-12-13T05:55:21.687Z,102357.41
2018-12-13T05:57:50.030Z,102355.53
2018-12-13T06:00:18.464Z,102359.20
2018-12-13T06:02:46.803Z,102355.71
2018-12-13T06:05:15.109Z,102355.05
2018-12-13T06:07:43.438Z,102355.08
2018-12-13T06:10:11.759Z,102354.42
2018-12-13T06:12:40.250Z,102345.73
2018-12-13T06:15:08.609Z,102349.25
2018-12-13T06:17:36.924Z,102345.27
2018-12-13T06:20:05.428Z,102346.22
2018-12-13T06:22:33.782Z,102353.14
2018-12-13T06:25:02.108Z,102356.73
2018-12-13T06:27:30.438Z,102353.67
2018-12-13T06:29:59.249Z,102355.36
2018-12-13T06:32:27.648Z,102359.42
2018-12-13T06:34:56.111Z,102364.48
2018-12-13T06:37:24.413Z,102365.09
2018-12-13T06:39:53.640Z,102361.41
2018-12-13T06:42:21.945Z,102357.22
2018-12-13T06:44:50.274Z,102351.20
2018-12-13T06:47:18.601Z,102360.41
2018-12-13T06:49:46.907Z,102357.43
2018-12-13T06:52:15.210Z,102358.98
2018-12-13T06:54:43.533Z,102360.94
2018-12-13T06:57:12.077Z,102361.72
2018-12-13T06:59:40.478Z,102358.64
2018-12-13T07:02:08.873Z,102364.31
2018-12-13T07:04:37.193Z,102363.62
2018-12-13T07:07:05.508Z,102368.03
2018-12-13T07:09:33.819Z,102357.65
2018-12-13T07:12:02.174Z,102367.30
2018-12-13T07:14:30.535Z,102359.89
2018-12-13T07:16:58.919Z,102368.64
2018-12-13T07:19:27.418Z,102365.14
2018-12-13T07:21:55.720Z,102361.28
2018-12-13T07:24:24.018Z,102358.47
2018-12-13T07:26:52.387Z,102357.83
2018-12-13T07:29:20.676Z,102366.34
2018-12-13T07:31:49.039Z,102359.51
2018-12-13T07:34:17.362Z,102363.62
2018-12-13T07:36:45.697Z,102369.77
2018-12-13T07:39:13.982Z,102364.84
2018-12-13T07:41:42.576Z,102364.23
2018-12-13T07:44:10.886Z,102365.10
2018-12-13T07:46:39.184Z,102364.67
2018-12-13T07:49:07.522Z,102365.84
2018-12-13T07:51:35.853Z,102360.74
2018-12-13T07:54:04.247Z,102363.59
2018-12-13T07:56:32.584Z,102360.71
2018-12-13T07:59:01.064Z,102365.09
2018-12-13T08:01:29.328Z,102363.31
2018-12-13T08:03:57.814Z,102363.77
2018-12-13T08:06:26.165Z,102354.34
2018-12-13T08:08:54.465Z,102357.28
2018-12-13T08:11:22.895Z,102349.56
2018-12-13T08:13:51.237Z,102342.52
2018-12-13T08:16:19.607Z,102343.20
2018-12-13T08:18:47.933Z,102344.73
2018-12-13T08:21:16.240Z,102342.75
2018-12-13T08:23:44.603Z,102338.55
2018-12-13T08:26:13.053Z,102334.83
2018-12-13T08:28:41.369Z,102331.87
2018-12-13T08:31:09.714Z,102329.86
2018-12-13T08:33:38.130Z,102333.26
2018-12-13T08:36:06.509Z,102321.91
2018-12-13T08:38:34.928Z,102328.00
2018-12-13T08:41:03.319Z,102335.72
2018-12-13T08:43:31.626Z,102337.55
2018-12-13T08:45:59.959Z,102330.09
2018-12-13T08:48:28.581Z,102333.31
2018-12-13T08:50:56.951Z,102324.86
2018-12-13T08:53:25.344Z,102322.53
2018-12-13T08:55:54.216Z,102329.27
2018-12-13T08:58:22.590Z,102316.75
2018-12-13T09:00:51.029Z,102318.44
2018-12-13T09:03:19.390Z,102320.52
2018-12-13T09:05:48.732Z,102321.99
2018-12-13T09:08:17.046Z,102327.86
2018-12-13T09:10:45.432Z,102317.76
2018-12-13T09:13:13.768Z,102306.67
2018-12-13T09:15:42.094Z,102306.47
2018-12-13T09:18:10.490Z,102315.67
2018-12-13T09:20:38.819Z,102313.24
2018-12-13T09:23:07.185Z,102309.61
2018-12-13T09:25:35.495Z,102306.23
2018-12-13T09:28:03.872Z,102303.09
2018-12-13T09:30:32.215Z,102300.94
2018-12-13T09:33:00.769Z,102301.14
2018-12-13T09:35:29.112Z,102307.41
2018-12-13T09:37:57.595Z,102308.66
2018-12-13T09:40:25.946Z,102311.30
2018-12-13T09:42:54.260Z,102307.96
2018-12-13T09:45:22.563Z,102312.54
2018-12-13T09:47:50.896Z,102309.42
2018-12-13T09:50:19.185Z,102307.56
2018-12-13T09:52:47.545Z,102307.73
2018-12-13T09:55:16.077Z,102311.55
2018-12-13T09:57:44.405Z,102295.84
2018-12-13T10:00:12.751Z,102303.99
2018-12-13T10:02:41.287Z,102301.31
2018-12-13T10:05:09.622Z,102298.42
2018-12-13T10:10:05.836Z,102291.19
2018-12-13T10:12:34.152Z,102306.73
2018-12-13T10:15:02.478Z,102309.92
2018-12-13T10:17:30.974Z,102313.08
2018-12-13T10:19:59.263Z,102310.85
2018-12-13T10:22:28.689Z,102315.26
2018-12-13T10:24:57.191Z,102317.93
2018-12-13T10:27:26.267Z,102316.88
2018-12-13T10:29:54.617Z,102318.86
2018-12-13T10:32:22.945Z,102315.58
2018-12-13T10:34:51.238Z,102319.59
2018-12-13T10:37:19.565Z,102317.72
2018-12-13T10:39:48.069Z,102322.16
2018-12-13T10:42:16.364Z,102317.30
2018-12-13T10:44:44.673Z,102322.94
2018-12-13T10:47:13.072Z,102320.45
2018-12-13T10:49:41.338Z,102322.48
2018-12-13T10:52:09.669Z,102318.78
2018-12-13T10:54:38.014Z,102322.63
2018-12-13T10:57:06.344Z,102317.11
2018-12-13T10:59:34.755Z,102319.64
2018-12-13T11:02:05.181Z,102316.94
2018-12-13T11:04:33.478Z,102301.39
2018-12-13T11:07:01.797Z,102302.36
2018-12-13T11:09:30.139Z,102304.21
2018-12-13T11:11:58.421Z,102303.89
2018-12-13T11:14:26.779Z,102309.02
2018-12-13T11:16:55.137Z,102297.41
2018-12-13T11:19:23.425Z,102290.82
2018-12-13T11:21:51.711Z,102297.07
2018-12-13T11:24:20.086Z,102296.59
2018-12-13T11:26:48.392Z,102291.86
2018-12-13T11:29:34.337Z,102287.23
2018-12-13T11:32:02.625Z,102296.20
2018-12-13T11:34:30.981Z,102292.82
2018-12-13T11:36:59.426Z,102292.41
2018-12-13T11:39:27.742Z,102292.09
2018-12-13T11:41:56.038Z,102293.79
2018-12-13T11:44:26.297Z,102286.09
2018-12-13T11:46:54.579Z,102293.52
2018-12-13T11:49:22.895Z,102282.12
2018-12-13T11:51:51.347Z,102284.09
2018-12-13T11:54:25.442Z,102288.64
2018-12-13T11:56:53.755Z,102284.63
2018-12-13T11:59:22.042Z,102286.36
2018-12-13T12:01:50.316Z,102277.22
2018-12-13T12:04:18.961Z,102279.94
2018-12-13T12:06:47.382Z,102277.52
2018-12-13T12:09:15.680Z,102271.66
2018-12-13T12:11:43.989Z,102271.23
2018-12-13T12:14:12.326Z,102267.12
2018-12-13T12:16:40.629Z,102266.84
2018-12-13T12:19:08.970Z,102265.85
2018-12-13T12:21:37.259Z,102261.47
2018-12-13T12:24:05.570Z,102261.95
2018-12-13T12:26:34.105Z,102261.53
2018-12-13T12:29:02.466Z,102260.63
2018-12-13T12:31:30.839Z,102264.55
2018-12-13T12:33:59.181Z,102255.91
2018-12-13T12:36:27.533Z,102254.80
2018-12-13T12:38:55.841Z,102253.03
2018-12-13T12:41:24.183Z,102245.27
2018-12-13T12:43:52.488Z,102248.17
2018-12-13T12:46:21.293Z,102246.61
2018-12-13T12:48:49.910Z,102244.62
2018-12-13T12:51:18.224Z,102252.28
2018-12-13T12:53:46.524Z,102242.61
2018-12-13T12:56:14.878Z,102236.02
2018-12-13T12:58:43.209Z,102229.12
2018-12-13T13:01:11.525Z,102230.77
2018-12-13T13:03:39.861Z,102232.47
2018-12-13T13:06:08.437Z,102229.60
2018-12-13T13:08:36.775Z,102236.72
2018-12-13T13:11:06.072Z,102235.37
2018-12-13T13:13:34.400Z,102237.27
2018-12-13T13:16:02.716Z,102231.81
2018-12-13T13:18:32.207Z,102230.33
2018-12-13T13:21:00.632Z,102235.61
2018-12-13T13:23:28.956Z,102236.75
2018-12-13T13:25:57.314Z,102236.16
2018-12-13T13:28:25.638Z,102231.14
2018-12-13T13:30:53.969Z,102229.32
2018-12-13T13:33:22.550Z,102235.41
2018-12-13T13:35:50.863Z,102242.38
2018-12-13T13:38:19.303Z,102238.95
2018-12-13T13:40:47.745Z,102235.70
2018-12-13T13:43:16.122Z,102230.36
2018-12-13T13:45:44.442Z,102223.48
2018-12-13T13:48:12.778Z,102222.92
2018-12-13T13:50:41.086Z,102225.10
2018-12-13T13:53:09.471Z,102218.88
2018-12-13T13:55:37.861Z,102218.20
2018-12-13T13:58:06.208Z,102216.55
2018-12-13T14:00:34.541Z,102206.87
2018-12-13T14:03:02.920Z,102205.44
2018-12-13T14:05:31.285Z,102205.68
2018-12-13T14:07:59.941Z,102200.56
2018-12-13T14:10:28.417Z,102191.90
2018-12-13T14:12:56.740Z,102191.34
2018-12-13T14:15:25.053Z,102197.72
2018-12-13T14:17:53.586Z,102194.80
2018-12-13T14:20:21.900Z,102186.23
2018-12-13T14:22:50.453Z,102183.70
2018-12-13T14:25:18.810Z,102185.98
2018-12-13T14:27:47.142Z,102193.04
2018-12-13T14:30:15.447Z,102192.00
2018-12-13T14:32:43.819Z,102191.53
2018-12-13T14:35:12.181Z,102191.62
2018-12-13T14:37:40.511Z,102191.38
2018-12-13T14:40:09.086Z,102188.60
2018-12-13T14:42:37.429Z,102193.70
2018-12-13T14:45:06.116Z,102186.58
2018-12-13T14:47:34.434Z,102197.28
2018-12-13T14:50:02.790Z,102189.62
2018-12-13T14:52:31.118Z,102189.83
2018-12-13T14:54:59.449Z,102188.83
2018-12-13T14:57:27.779Z,102189.28
2018-12-13T14:59:56.124Z,102182.63
2018-12-13T15:02:24.651Z,102189.83
2018-12-13T15:04:53.376Z,102189.06
2018-12-13T15:07:21.690Z,102193.27
2018-12-13T15:09:51.088Z,102198.55
2018-12-13T15:12:19.684Z,102197.80
2018-12-13T15:14:48.040Z,102199.19
2018-12-13T15:17:16.438Z,102205.05
2018-12-13T15:19:44.753Z,102213.96
2018-12-13T15:22:13.067Z,102209.92
2018-12-13T15:24:41.465Z,102209.63
2018-12-13T15:27:09.791Z,102211.75
2018-12-13T15:29:38.093Z,102209.52
2018-12-13T15:32:06.467Z,102199.95
2018-12-13T15:34:34.754Z,102207.16
2018-12-13T15:37:03.125Z,102209.54
2018-12-13T15:39:31.463Z,102210.56
2018-12-13T15:41:59.821Z,102209.56
2018-12-13T15:44:28.191Z,102203.84
2018-12-13T15:46:56.709Z,102204.55
2018-12-13T15:49:25.475Z,102195.78
2018-12-13T15:51:53.790Z,102198.50
2018-12-13T15:54:22.123Z,102198.45
2018-12-13T15:56:50.443Z,102192.52
2018-12-13T15:59:18.751Z,102195.17
2018-12-13T16:01:47.101Z,102199.08
2018-12-13T16:04:15.424Z,102191.58
2018-12-13T16:06:43.767Z,102191.01
2018-12-13T16:09:12.176Z,102195.86
2018-12-13T16:11:40.544Z,102196.77
2018-12-13T16:14:08.850Z,102195.08
2018-12-13T16:16:37.227Z,102198.76
2018-12-13T16:19:05.553Z,102200.73
2018-12-13T16:21:33.939Z,102197.13
2018-12-13T16:24:02.295Z,102192.84
2018-12-13T16:26:30.582Z,102191.83
2018-12-13T16:28:58.932Z,102199.08
2018-12-13T16:31:27.694Z,102193.88
2018-12-13T16:33:56.017Z,102183.47
2018-12-13T16:36:24.399Z,102187.77
2018-12-13T16:38:52.824Z,102188.24
2018-12-13T16:41:21.205Z,102187.80
2018-12-13T16:43:49.509Z,102182.92
2018-12-13T16:46:17.858Z,102186.59
2018-12-13T16:48:46.240Z,102182.84
2018-12-13T16:51:14.570Z,102198.88
2018-12-13T16:53:43.077Z,102194.28
2018-12-13T16:56:11.506Z,102187.54
2018-12-13T16:58:39.891Z,102183.98
2018-12-13T17:01:08.265Z,102191.23
2018-12-13T17:03:41.371Z,102192.94
2018-12-13T17:06:09.812Z,102197.58
2018-12-13T17:08:38.157Z,102193.18
2018-12-13T17:11:06.596Z,102192.98
2018-12-13T17:13:35.072Z,102194.54
2018-12-13T17:16:03.370Z,102194.73
2018-12-13T17:18:31.830Z,102196.27
2018-12-13T17:21:00.311Z,102201.43
2018-12-13T17:23:28.705Z,102197.11
2018-12-13T17:25:57.065Z,102199.30
2018-12-13T17:28:25.499Z,102195.09
2018-12-13T17:30:53.828Z,102195.89
2018-12-13T17:33:22.221Z,102198.17
2018-12-13T17:35:50.869Z,102192.25
2018-12-13T17:38:19.197Z,102192.40
2018-12-13T17:40:47.539Z,102192.31
2018-12-13T17:43:16.028Z,102203.40
2018-12-13T17:45:44.344Z,102201.19
2018-12-13T17:48:12.700Z,102199.94
2018-12-13T17:50:41.117Z,102200.52
2018-12-13T17:53:09.482Z,102200.13
2018-12-13T17:55:37.884Z,102200.52
2018-12-13T17:58:06.448Z,102201.95
2018-12-13T18:00:34.787Z,102212.91
2018-12-13T18:03:03.137Z,102208.80
2018-12-13T18:05:31.552Z,102209.56
2018-12-13T18:07:59.924Z,102218.92
2018-12-13T18:10:29.541Z,102219.30
2018-12-13T18:12:58.004Z,102211.62
2018-12-13T18:15:26.320Z,102215.35
2018-12-13T18:17:54.682Z,102209.23
2018-12-13T18:20:23.139Z,102219.48
2018-12-13T18:22:51.607Z,102217.75
2018-12-13T18:25:20.043Z,102219.67
2018-12-13T18:27:48.485Z,102219.30
2018-12-13T18:30:16.816Z,102223.25
2018-12-13T18:32:45.166Z,102226.25
2018-12-13T18:35:13.496Z,102218.10
2018-12-13T18:37:41.831Z,102222.68
2018-12-13T18:40:11.613Z,102222.12
2018-12-13T18:42:40.415Z,102220.97
2018-12-13T18:45:08.854Z,102222.02
2018-12-13T18:47:37.242Z,102228.61
2018-12-13T18:50:06.371Z,102227.98
2018-12-13T18:52:34.767Z,102227.20
2018-12-13T18:55:03.253Z,102226.57
2018-12-13T18:57:31.636Z,102225.44
2018-12-13T18:59:59.979Z,102217.83
2018-12-13T19:02:28.285Z,102225.80
2018-12-13T19:04:56.791Z,102220.25
2018-12-13T19:07:25.083Z,102226.20
2018-12-13T19:09:53.481Z,102223.41
2018-12-13T19:12:21.930Z,102224.84
2018-12-13T19:14:50.269Z,102222.41
2018-12-13T19:17:18.746Z,102223.06
2018-12-13T19:19:47.111Z,102221.66
2018-12-13T19:22:15.411Z,102225.23
2018-12-13T19:24:43.792Z,102219.20
2018-12-13T19:27:12.526Z,102235.62
2018-12-13T19:29:40.868Z,102235.72
2018-12-13T19:32:09.239Z,102229.70
2018-12-13T19:34:37.641Z,102232.44
2018-12-13T19:37:05.996Z,102230.89
2018-12-13T19:39:34.296Z,102224.80
2018-12-13T19:42:02.682Z,102232.75
2018-12-13T19:44:31.002Z,102233.25
2018-12-13T19:46:59.315Z,102238.03
2018-12-13T19:49:27.997Z,102230.27
2018-12-13T19:51:56.289Z,102239.74
2018-12-13T19:54:24.644Z,102243.31
2018-12-13T19:56:52.999Z,102255.30
2018-12-13T19:59:21.347Z,102248.62
2018-12-13T20:01:49.710Z,102256.20
2018-12-13T20:04:18.088Z,102246.13
2018-12-13T20:06:46.435Z,102255.91
2018-12-13T20:09:14.835Z,102246.67
2018-12-13T20:11:43.286Z,102242.48
2018-12-13T20:14:11.802Z,102247.47
2018-12-13T20:16:40.154Z,102242.83
2018-12-13T20:19:08.504Z,102249.73
2018-12-13T20:21:36.923Z,102257.88
2018-12-13T20:24:05.306Z,102255.52
2018-12-13T20:26:33.677Z,102251.89
2018-12-13T20:29:02.038Z,102249.81
2018-12-13T20:31:30.376Z,102253.41
2018-12-13T20:33:59.023Z,102252.25
2018-12-13T20:36:27.381Z,102254.45
2018-12-13T20:38:55.748Z,102261.64
2018-12-13T20:41:24.144Z,102265.71
2018-12-13T20:43:52.469Z,102269.55
2018-12-13T20:46:20.808Z,102266.85
2018-12-13T20:48:49.223Z,102261.70
2018-12-13T20:51:17.559Z,102263.53
2018-12-13T20:53:45.853Z,102256.72
2018-12-13T20:56:14.288Z,102256.77
2018-12-13T20:58:42.651Z,102264.95
2018-12-13T21:01:11.087Z,102267.17
2018-12-13T21:03:39.399Z,102267.13
2018-12-13T21:06:07.707Z,102267.08
2018-12-13T21:08:36.026Z,102270.31
2018-12-13T21:11:07.424Z,102270.25
2018-12-13T21:13:34.781Z,102265.70
2018-12-13T21:16:03.150Z,102257.47
2018-12-13T21:18:31.664Z,102265.40
2018-12-13T21:21:00.005Z,102267.17
2018-12-13T21:23:28.325Z,102267.75
2018-12-13T21:25:56.874Z,102265.02
2018-12-13T21:28:25.186Z,102259.64
2018-12-13T21:30:53.505Z,102265.97
2018-12-13T21:33:21.852Z,102265.59
2018-12-13T21:35:50.211Z,102268.47
2018-12-13T21:38:18.510Z,102272.33
2018-12-13T21:40:46.937Z,102273.38
2018-12-13T21:43:15.259Z,102269.16
2018-12-13T21:45:43.677Z,102267.42
2018-12-13T21:48:12.055Z,102268.09
2018-12-13T21:50:40.355Z,102268.03
2018-12-13T21:53:08.732Z,102273.20
2018-12-13T21:55:37.128Z,102269.57
2018-12-13T21:58:05.481Z,102263.91
2018-12-13T22:00:33.835Z,102265.34
2018-12-13T22:03:02.719Z,102260.66
2018-12-13T22:05:31.064Z,102259.65
2018-12-13T22:07:59.389Z,102261.70
2018-12-13T22:10:27.740Z,102264.24
2018-12-13T22:12:56.106Z,102261.46
2018-12-13T22:15:24.393Z,102262.64
2018-12-13T22:17:52.780Z,102267.77
2018-12-13T22:20:21.146Z,102259.30
2018-12-13T22:22:49.509Z,102265.65
2018-12-13T22:25:18.086Z,102266.48
2018-12-13T22:27:46.415Z,102263.04
2018-12-13T22:30:14.749Z,102268.88
2018-12-13T22:32:43.083Z,102261.59
2018-12-13T22:35:11.430Z,102261.80
2018-12-13T22:37:39.919Z,102257.39
2018-12-13T22:40:08.357Z,102265.71
2018-12-13T22:42:36.840Z,102268.32
2018-12-13T22:45:06.233Z,102270.91
2018-12-13T22:47:34.886Z,102270.97
2018-12-13T22:50:03.234Z,102265.53
2018-12-13T22:52:31.576Z,102268.38
2018-12-13T22:54:59.941Z,102269.73
2018-12-13T22:57:28.300Z,102258.24
2018-12-13T22:59:56.639Z,102262.44
2018-12-13T23:02:25.074Z,102264.91
2018-12-13T23:04:53.404Z,102259.48
2018-12-13T23:07:21.824Z,102259.95
2018-12-13T23:09:50.354Z,102260.52
2018-12-13T23:12:18.647Z,102253.64
2018-12-13T23:14:47.202Z,102257.08
2018-12-13T23:17:15.675Z,102257.87
2018-12-13T23:19:43.992Z,102258.06
2018-12-13T23:22:12.340Z,102258.13
2018-12-13T23:24:40.694Z,102261.41
2018-12-13T23:27:09.319Z,102262.38
2018-12-13T23:29:37.645Z,102260.41
2018-12-13T23:32:06.402Z,102260.55
2018-12-13T23:34:34.748Z,102267.23
2018-12-13T23:37:03.086Z,102262.16
2018-12-13T23:39:31.456Z,102267.02
2018-12-13T23:41:59.770Z,102272.44
2018-12-13T23:44:28.189Z,102268.61
2018-12-13T23:46:56.558Z,102270.95
2018-12-13T23:49:24.903Z,102265.69
2018-12-13T23:51:53.318Z,102270.11
2018-12-13T23:54:21.988Z,102265.92
2018-12-13T23:56:50.329Z,102266.48
2018-12-13T23:59:18.727Z,102265.23
